sensor_id;sensor_type;location;lat;lon;timestamp;pressure;altitude;pressure_sealevel;temperature;humidity
15646;BME280;7922;43.622;1.476;2024-01-06T00:01:41;99482.94;;;6.68;100.00
15646;BME280;7922;43.622;1.476;2024-01-06T00:04:06;99470.09;;;6.59;100.00
15646;BME280;7922;43.622;1.476;2024-01-06T00:06:31;99472.44;;;6.67;100.00
15646;BME280;7922;43.622;1.476;2024-01-06T00:08:57;99476.03;;;6.64;100.00
15646;BME280;7922;43.622;1.476;2024-01-06T00:11:22;99492.38;;;6.74;100.00
15646;BME280;7922;43.622;1.476;2024-01-06T00:13:48;99463.38;;;6.50;100.00
15646;BME280;7922;43.622;1.476;2024-01-06T00:16:17;99433.88;;;6.41;100.00
15646;BME280;7922;43.622;1.476;2024-01-06T00:18:42;99488.84;;;6.75;100.00
15646;BME280;7922;43.622;1.476;2024-01-06T00:21:08;99510.53;;;6.82;100.00
15646;BME280;7922;43.622;1.476;2024-01-06T00:23:33;99505.34;;;6.80;100.00
15646;BME280;7922;43.622;1.476;2024-01-06T00:25:59;99482.88;;;6.70;100.00
15646;BME280;7922;43.622;1.476;2024-01-06T00:28:24;99485.69;;;6.65;100.00
15646;BME280;7922;43.622;1.476;2024-01-06T00:30:49;99500.19;;;6.77;100.00
15646;BME280;7922;43.622;1.476;2024-01-06T00:33:14;99491.81;;;6.66;100.00
15646;BME280;7922;43.622;1.476;2024-01-06T00:35:40;99492.38;;;6.74;100.00
15646;BME280;7922;43.622;1.476;2024-01-06T00:38:05;99490.94;;;6.65;100.00
15646;BME280;7922;43.622;1.476;2024-01-06T00:40:31;99508.06;;;6.77;100.00
15646;BME280;7922;43.622;1.476;2024-01-06T00:42:56;99497.91;;;6.66;100.00
15646;BME280;7922;43.622;1.476;2024-01-06T00:45:21;99522.00;;;6.81;100.00
15646;BME280;7922;43.622;1.476;2024-01-06T00:47:47;99472.16;;;6.49;100.00
15646;BME280;7922;43.622;1.476;2024-01-06T00:50:12;99508.19;;;6.74;100.00
15646;BME280;7922;43.622;1.476;2024-01-06T00:52:37;99479.88;;;6.56;100.00
15646;BME280;7922;43.622;1.476;2024-01-06T00:55:03;99496.09;;;6.68;100.00
15646;BME280;7922;43.622;1.476;2024-01-06T00:57:28;99495.22;;;6.68;100.00
15646;BME280;7922;43.622;1.476;2024-01-06T00:59:53;99496.91;;;6.70;100.00
15646;BME280;7922;43.622;1.476;2024-01-06T01:02:18;99499.63;;;6.67;100.00
15646;BME280;7922;43.622;1.476;2024-01-06T01:04:44;99487.50;;;6.63;100.00
15646;BME280;7922;43.622;1.476;2024-01-06T01:07:09;99484.06;;;6.61;100.00
15646;BME280;7922;43.622;1.476;2024-01-06T01:09:34;99460.84;;;6.47;100.00
15646;BME280;7922;43.622;1.476;2024-01-06T01:12:00;99494.25;;;6.70;100.00
15646;BME280;7922;43.622;1.476;2024-01-06T01:14:25;99484.81;;;6.65;100.00
15646;BME280;7922;43.622;1.476;2024-01-06T01:16:50;99501.19;;;6.73;100.00
15646;BME280;7922;43.622;1.476;2024-01-06T01:19:16;99500.34;;;6.72;100.00
15646;BME280;7922;43.622;1.476;2024-01-06T01:21:41;99493.56;;;6.65;100.00
15646;BME280;7922;43.622;1.476;2024-01-06T01:24:06;99499.69;;;6.66;100.00
15646;BME280;7922;43.622;1.476;2024-01-06T01:26:31;99516.81;;;6.78;100.00
15646;BME280;7922;43.622;1.476;2024-01-06T01:28:57;99514.28;;;6.74;100.00
15646;BME280;7922;43.622;1.476;2024-01-06T01:31:22;99536.94;;;6.80;100.00
15646;BME280;7922;43.622;1.476;2024-01-06T01:33:47;99505.75;;;6.68;100.00
15646;BME280;7922;43.622;1.476;2024-01-06T01:36:13;99514.63;;;6.65;100.00
15646;BME280;7922;43.622;1.476;2024-01-06T01:38:38;99525.81;;;6.72;100.00
15646;BME280;7922;43.622;1.476;2024-01-06T01:41:03;99527.47;;;6.74;100.00
15646;BME280;7922;43.622;1.476;2024-01-06T01:43:29;99542.19;;;6.80;100.00
15646;BME280;7922;43.622;1.476;2024-01-06T01:45:54;99527.47;;;6.74;100.00
15646;BME280;7922;43.622;1.476;2024-01-06T01:48:20;99525.91;;;6.69;100.00
15646;BME280;7922;43.622;1.476;2024-01-06T01:50:47;99489.31;;;6.35;100.00
15646;BME280;7922;43.622;1.476;2024-01-06T01:53:12;99528.75;;;6.63;100.00
15646;BME280;7922;43.622;1.476;2024-01-06T01:55:40;99537.50;;;6.63;100.00
15646;BME280;7922;43.622;1.476;2024-01-06T01:58:06;99559.97;;;6.73;100.00
15646;BME280;7922;43.622;1.476;2024-01-06T02:00:31;99546.25;;;6.64;100.00
15646;BME280;7922;43.622;1.476;2024-01-06T02:02:58;99530.94;;;6.50;100.00
15646;BME280;7922;43.622;1.476;2024-01-06T02:05:24;99554.38;;;6.58;100.00
15646;BME280;7922;43.622;1.476;2024-01-06T02:07:49;99554.41;;;6.56;100.00
15646;BME280;7922;43.622;1.476;2024-01-06T02:10:14;99551.25;;;6.45;100.00
15646;BME280;7922;43.622;1.476;2024-01-06T02:12:40;99552.94;;;6.47;100.00
15646;BME280;7922;43.622;1.476;2024-01-06T02:15:05;99583.94;;;6.64;100.00
15646;BME280;7922;43.622;1.476;2024-01-06T02:17:31;99566.13;;;6.46;100.00
15646;BME280;7922;43.622;1.476;2024-01-06T02:19:56;99568.13;;;6.39;100.00
15646;BME280;7922;43.622;1.476;2024-01-06T02:22:21;99540.41;;;6.27;100.00
15646;BME280;7922;43.622;1.476;2024-01-06T02:24:46;99557.88;;;6.30;100.00
15646;BME280;7922;43.622;1.476;2024-01-06T02:27:12;99563.03;;;6.33;100.00
15646;BME280;7922;43.622;1.476;2024-01-06T02:29:37;99505.53;;;5.94;100.00
15646;BME280;7922;43.622;1.476;2024-01-06T02:32:02;99579.78;;;6.31;100.00
15646;BME280;7922;43.622;1.476;2024-01-06T02:34:28;99572.84;;;6.28;100.00
15646;BME280;7922;43.622;1.476;2024-01-06T02:36:53;99584.25;;;6.29;100.00
15646;BME280;7922;43.622;1.476;2024-01-06T02:39:18;99569.41;;;6.26;100.00
15646;BME280;7922;43.622;1.476;2024-01-06T02:41:44;99566.06;;;6.21;100.00
15646;BME280;7922;43.622;1.476;2024-01-06T02:44:09;99577.31;;;6.24;100.00
15646;BME280;7922;43.622;1.476;2024-01-06T02:46:34;99586.97;;;6.25;100.00
15646;BME280;7922;43.622;1.476;2024-01-06T02:48:59;99575.81;;;6.17;100.00
15646;BME280;7922;43.622;1.476;2024-01-06T02:51:25;99575.00;;;6.15;100.00
15646;BME280;7922;43.622;1.476;2024-01-06T02:53:50;99585.53;;;6.15;100.00
15646;BME280;7922;43.622;1.476;2024-01-06T02:56:15;99583.81;;;6.14;100.00
15646;BME280;7922;43.622;1.476;2024-01-06T02:58:41;99588.09;;;6.17;100.00
15646;BME280;7922;43.622;1.476;2024-01-06T03:01:06;99602.78;;;6.24;100.00
15646;BME280;7922;43.622;1.476;2024-01-06T03:03:31;99545.25;;;5.84;100.00
15646;BME280;7922;43.622;1.476;2024-01-06T03:05:57;99597.81;;;6.15;100.00
15646;BME280;7922;43.622;1.476;2024-01-06T03:08:22;99618.69;;;6.19;100.00
15646;BME280;7922;43.622;1.476;2024-01-06T03:10:48;99575.59;;;5.95;100.00
15646;BME280;7922;43.622;1.476;2024-01-06T03:13:14;99576.63;;;5.90;100.00
15646;BME280;7922;43.622;1.476;2024-01-06T03:15:39;99589.25;;;6.08;100.00
15646;BME280;7922;43.622;1.476;2024-01-06T03:18:05;99610.97;;;6.15;100.00
15646;BME280;7922;43.622;1.476;2024-01-06T03:20:30;99589.63;;;5.96;100.00
15646;BME280;7922;43.622;1.476;2024-01-06T03:22:55;99600.00;;;6.00;100.00
15646;BME280;7922;43.622;1.476;2024-01-06T03:25:20;99600.00;;;6.00;100.00
15646;BME280;7922;43.622;1.476;2024-01-06T03:27:46;99626.75;;;6.15;100.00
15646;BME280;7922;43.622;1.476;2024-01-06T03:30:12;99554.69;;;5.61;100.00
15646;BME280;7922;43.622;1.476;2024-01-06T03:32:37;99615.91;;;5.96;100.00
15646;BME280;7922;43.622;1.476;2024-01-06T03:35:02;99625.44;;;6.00;100.00
15646;BME280;7922;43.622;1.476;2024-01-06T03:37:28;99640.88;;;6.11;100.00
15646;BME280;7922;43.622;1.476;2024-01-06T03:39:53;99633.03;;;6.09;100.00
15646;BME280;7922;43.622;1.476;2024-01-06T03:42:18;99633.25;;;6.01;100.00
15646;BME280;7922;43.622;1.476;2024-01-06T03:44:44;99598.09;;;5.74;100.00
15646;BME280;7922;43.622;1.476;2024-01-06T03:47:09;99638.59;;;5.98;100.00
15646;BME280;7922;43.622;1.476;2024-01-06T03:49:34;99615.22;;;5.88;100.00
15646;BME280;7922;43.622;1.476;2024-01-06T03:51:59;99613.59;;;5.84;100.00
15646;BME280;7922;43.622;1.476;2024-01-06T03:54:25;99635.16;;;5.96;100.00
15646;BME280;7922;43.622;1.476;2024-01-06T03:56:50;99645.50;;;6.02;100.00
15646;BME280;7922;43.622;1.476;2024-01-06T03:59:15;99600.22;;;5.62;100.00
15646;BME280;7922;43.622;1.476;2024-01-06T04:01:41;99567.41;;;5.45;100.00
15646;BME280;7922;43.622;1.476;2024-01-06T04:04:06;99607.16;;;5.64;100.00
15646;BME280;7922;43.622;1.476;2024-01-06T04:06:32;99625.19;;;5.76;100.00
15646;BME280;7922;43.622;1.476;2024-01-06T04:08:57;99627.09;;;5.71;100.00
15646;BME280;7922;43.622;1.476;2024-01-06T04:11:23;99653.16;;;5.79;100.00
15646;BME280;7922;43.622;1.476;2024-01-06T04:13:48;99640.31;;;5.68;100.00
15646;BME280;7922;43.622;1.476;2024-01-06T04:16:13;99658.47;;;5.77;100.00
15646;BME280;7922;43.622;1.476;2024-01-06T04:18:39;99632.72;;;5.58;100.00
15646;BME280;7922;43.622;1.476;2024-01-06T04:21:04;99643.84;;;5.67;100.00
15646;BME280;7922;43.622;1.476;2024-01-06T04:23:30;99650.06;;;5.65;100.00
15646;BME280;7922;43.622;1.476;2024-01-06T04:25:55;99643.09;;;5.64;100.00
15646;BME280;7922;43.622;1.476;2024-01-06T04:28:20;99627.56;;;5.54;100.00
15646;BME280;7922;43.622;1.476;2024-01-06T04:30:46;99633.00;;;5.48;100.00
15646;BME280;7922;43.622;1.476;2024-01-06T04:33:13;99588.22;;;5.20;100.00
15646;BME280;7922;43.622;1.476;2024-01-06T04:35:38;99643.28;;;5.56;100.00
15646;BME280;7922;43.622;1.476;2024-01-06T04:38:04;99648.34;;;5.62;100.00
15646;BME280;7922;43.622;1.476;2024-01-06T04:40:29;99580.34;;;5.20;100.00
15646;BME280;7922;43.622;1.476;2024-01-06T04:42:54;99625.13;;;5.48;100.00
15646;BME280;7922;43.622;1.476;2024-01-06T04:45:20;99647.78;;;5.52;100.00
15646;BME280;7922;43.622;1.476;2024-01-06T04:47:45;99634.66;;;5.51;100.00
15646;BME280;7922;43.622;1.476;2024-01-06T04:50:10;99593.31;;;5.26;100.00
15646;BME280;7922;43.622;1.476;2024-01-06T04:52:36;99584.13;;;5.10;100.00
15646;BME280;7922;43.622;1.476;2024-01-06T04:55:01;99628.91;;;5.38;100.00
15646;BME280;7922;43.622;1.476;2024-01-06T04:57:26;99649.69;;;5.46;100.00
15646;BME280;7922;43.622;1.476;2024-01-06T04:59:52;99667.81;;;5.55;100.00
15646;BME280;7922;43.622;1.476;2024-01-06T05:02:17;99658.50;;;5.45;100.00
15646;BME280;7922;43.622;1.476;2024-01-06T05:04:42;99654.44;;;5.31;100.00
15646;BME280;7922;43.622;1.476;2024-01-06T05:07:07;99664.84;;;5.36;100.00
15646;BME280;7922;43.622;1.476;2024-01-06T05:09:33;99681.28;;;5.43;100.00
15646;BME280;7922;43.622;1.476;2024-01-06T05:11:58;99633.66;;;5.22;100.00
15646;BME280;7922;43.622;1.476;2024-01-06T05:14:23;99633.94;;;5.12;100.00
15646;BME280;7922;43.622;1.476;2024-01-06T05:16:48;99654.47;;;5.30;100.00
15646;BME280;7922;43.622;1.476;2024-01-06T05:19:14;99654.59;;;5.25;100.00
15646;BME280;7922;43.622;1.476;2024-01-06T05:21:39;99679.28;;;5.52;100.00
15646;BME280;7922;43.622;1.476;2024-01-06T05:24:05;99647.44;;;5.32;100.00
15646;BME280;7922;43.622;1.476;2024-01-06T05:26:30;99660.50;;;5.34;100.00
15646;BME280;7922;43.622;1.476;2024-01-06T05:28:55;99694.28;;;5.47;100.00
15646;BME280;7922;43.622;1.476;2024-01-06T05:31:21;99664.06;;;5.32;100.00
15646;BME280;7922;43.622;1.476;2024-01-06T05:33:46;99645.94;;;5.23;100.00
15646;BME280;7922;43.622;1.476;2024-01-06T05:36:11;99688.31;;;5.42;100.00
15646;BME280;7922;43.622;1.476;2024-01-06T05:38:37;99675.47;;;5.30;100.00
15646;BME280;7922;43.622;1.476;2024-01-06T05:41:02;99669.56;;;5.23;100.00
15646;BME280;7922;43.622;1.476;2024-01-06T05:43:27;99686.03;;;5.28;100.00
15646;BME280;7922;43.622;1.476;2024-01-06T05:45:53;99628.28;;;4.94;100.00
15646;BME280;7922;43.622;1.476;2024-01-06T05:48:18;99684.34;;;5.26;100.00
15646;BME280;7922;43.622;1.476;2024-01-06T05:50:44;99685.13;;;5.29;100.00
15646;BME280;7922;43.622;1.476;2024-01-06T05:53:09;99648.97;;;5.06;100.00
15646;BME280;7922;43.622;1.476;2024-01-06T05:55:34;99684.44;;;5.23;100.00
15646;BME280;7922;43.622;1.476;2024-01-06T05:58:00;99683.41;;;5.28;100.00
15646;BME280;7922;43.622;1.476;2024-01-06T06:00:25;99699.09;;;5.31;100.00
15646;BME280;7922;43.622;1.476;2024-01-06T06:02:50;99653.31;;;5.07;100.00
15646;BME280;7922;43.622;1.476;2024-01-06T06:05:16;99705.13;;;5.35;100.00
15646;BME280;7922;43.622;1.476;2024-01-06T06:07:42;99642.28;;;4.95;100.00
15646;BME280;7922;43.622;1.476;2024-01-06T06:10:09;99740.00;;;5.40;100.00
15646;BME280;7922;43.622;1.476;2024-01-06T06:12:35;99682.91;;;5.14;100.00
15646;BME280;7922;43.622;1.476;2024-01-06T06:15:01;99713.94;;;5.34;100.00
15646;BME280;7922;43.622;1.476;2024-01-06T06:17:26;99698.34;;;5.26;100.00
15646;BME280;7922;43.622;1.476;2024-01-06T06:19:51;99718.19;;;5.38;100.00
15646;BME280;7922;43.622;1.476;2024-01-06T06:22:16;99706.13;;;5.29;100.00
15646;BME280;7922;43.622;1.476;2024-01-06T06:24:42;99745.97;;;5.48;100.00
15646;BME280;7922;43.622;1.476;2024-01-06T06:27:07;99711.38;;;5.31;100.00
15646;BME280;7922;43.622;1.476;2024-01-06T06:29:32;99712.19;;;5.33;100.00
15646;BME280;7922;43.622;1.476;2024-01-06T06:31:58;99715.63;;;5.35;100.00
15646;BME280;7922;43.622;1.476;2024-01-06T06:34:23;99715.50;;;5.40;100.00
15646;BME280;7922;43.622;1.476;2024-01-06T06:36:48;99738.88;;;5.50;100.00
15646;BME280;7922;43.622;1.476;2024-01-06T06:39:13;99719.06;;;5.37;100.00
15646;BME280;7922;43.622;1.476;2024-01-06T06:41:39;99718.84;;;5.46;100.00
15646;BME280;7922;43.622;1.476;2024-01-06T06:44:04;99743.13;;;5.56;100.00
15646;BME280;7922;43.622;1.476;2024-01-06T06:46:29;99732.03;;;5.45;100.00
15646;BME280;7922;43.622;1.476;2024-01-06T06:48:54;99733.78;;;5.44;100.00
15646;BME280;7922;43.622;1.476;2024-01-06T06:51:20;99726.69;;;5.48;100.00
15646;BME280;7922;43.622;1.476;2024-01-06T06:53:45;99750.91;;;5.59;100.00
15646;BME280;7922;43.622;1.476;2024-01-06T06:56:10;99750.03;;;5.59;100.00
15646;BME280;7922;43.622;1.476;2024-01-06T06:58:36;99670.69;;;5.13;100.00
15646;BME280;7922;43.622;1.476;2024-01-06T07:01:01;99730.47;;;5.38;100.00
15646;BME280;7922;43.622;1.476;2024-01-06T07:03:26;99710.53;;;5.29;100.00
15646;BME280;7922;43.622;1.476;2024-01-06T07:05:52;99773.41;;;5.69;100.00
15646;BME280;7922;43.622;1.476;2024-01-06T07:08:17;99769.13;;;5.67;100.00
15646;BME280;7922;43.622;1.476;2024-01-06T07:10:42;99765.81;;;5.59;100.00
15646;BME280;7922;43.622;1.476;2024-01-06T07:13:08;99714.97;;;5.27;100.00
15646;BME280;7922;43.622;1.476;2024-01-06T07:15:33;99756.28;;;5.54;100.00
15646;BME280;7922;43.622;1.476;2024-01-06T07:17:58;99765.00;;;5.57;100.00
15646;BME280;7922;43.622;1.476;2024-01-06T07:20:23;99752.00;;;5.52;100.00
15646;BME280;7922;43.622;1.476;2024-01-06T07:22:49;99756.41;;;5.50;100.00
15646;BME280;7922;43.622;1.476;2024-01-06T07:25:14;99783.06;;;5.69;100.00
15646;BME280;7922;43.622;1.476;2024-01-06T07:27:39;99720.19;;;5.28;100.00
15646;BME280;7922;43.622;1.476;2024-01-06T07:30:05;99768.44;;;5.59;100.00
15646;BME280;7922;43.622;1.476;2024-01-06T07:32:30;99766.72;;;5.58;100.00
15646;BME280;7922;43.622;1.476;2024-01-06T07:34:56;99767.59;;;5.58;100.00
15646;BME280;7922;43.622;1.476;2024-01-06T07:37:21;99776.31;;;5.59;100.00
15646;BME280;7922;43.622;1.476;2024-01-06T07:39:46;99769.41;;;5.56;100.00
15646;BME280;7922;43.622;1.476;2024-01-06T07:42:12;99765.91;;;5.55;100.00
15646;BME280;7922;43.622;1.476;2024-01-06T07:44:37;99766.00;;;5.51;100.00
15646;BME280;7922;43.622;1.476;2024-01-06T07:47:02;99772.88;;;5.57;100.00
15646;BME280;7922;43.622;1.476;2024-01-06T07:49:28;99761.53;;;5.56;100.00
15646;BME280;7922;43.622;1.476;2024-01-06T07:51:53;99770.22;;;5.58;100.00
15646;BME280;7922;43.622;1.476;2024-01-06T07:54:18;99763.31;;;5.54;100.00
15646;BME280;7922;43.622;1.476;2024-01-06T07:56:43;99793.44;;;5.75;100.00
15646;BME280;7922;43.622;1.476;2024-01-06T07:59:09;99775.38;;;5.61;100.00
15646;BME280;7922;43.622;1.476;2024-01-06T08:01:35;99784.19;;;5.59;100.00
15646;BME280;7922;43.622;1.476;2024-01-06T08:04:00;99786.75;;;5.63;100.00
15646;BME280;7922;43.622;1.476;2024-01-06T08:06:26;99802.41;;;5.66;100.00
15646;BME280;7922;43.622;1.476;2024-01-06T08:08:51;99795.56;;;5.61;100.00
15646;BME280;7922;43.622;1.476;2024-01-06T08:11:16;99802.19;;;5.75;100.00
15646;BME280;7922;43.622;1.476;2024-01-06T08:13:42;99795.22;;;5.74;100.00
15646;BME280;7922;43.622;1.476;2024-01-06T08:16:07;99828.13;;;5.88;100.00
15646;BME280;7922;43.622;1.476;2024-01-06T08:18:32;99829.03;;;5.88;100.00
15646;BME280;7922;43.622;1.476;2024-01-06T08:20:57;99801.78;;;5.57;100.00
15646;BME280;7922;43.622;1.476;2024-01-06T08:23:23;99831.03;;;5.77;100.00
15646;BME280;7922;43.622;1.476;2024-01-06T08:25:48;99803.56;;;5.56;100.00
15646;BME280;7922;43.622;1.476;2024-01-06T08:28:14;99793.03;;;5.56;100.00
15646;BME280;7922;43.622;1.476;2024-01-06T08:30:39;99817.22;;;5.70;100.00
15646;BME280;7922;43.622;1.476;2024-01-06T08:33:04;99844.69;;;5.91;100.00
15646;BME280;7922;43.622;1.476;2024-01-06T08:35:30;99815.25;;;5.77;100.00
15646;BME280;7922;43.622;1.476;2024-01-06T08:37:55;99797.00;;;5.72;100.00
15646;BME280;7922;43.622;1.476;2024-01-06T08:40:20;99837.47;;;6.01;100.00
15646;BME280;7922;43.622;1.476;2024-01-06T08:42:45;99835.56;;;6.08;100.00
15646;BME280;7922;43.622;1.476;2024-01-06T08:45:11;99839.41;;;5.94;100.00
15646;BME280;7922;43.622;1.476;2024-01-06T08:47:37;99821.41;;;5.77;100.00
15646;BME280;7922;43.622;1.476;2024-01-06T08:50:02;99853.25;;;6.01;100.00
15646;BME280;7922;43.622;1.476;2024-01-06T08:52:27;99857.38;;;6.10;100.00
15646;BME280;7922;43.622;1.476;2024-01-06T08:54:53;99846.06;;;6.08;100.00
15646;BME280;7922;43.622;1.476;2024-01-06T08:57:18;99846.94;;;6.08;100.00
15646;BME280;7922;43.622;1.476;2024-01-06T08:59:43;99853.88;;;6.11;100.00
15646;BME280;7922;43.622;1.476;2024-01-06T09:02:09;99802.84;;;5.84;100.00
15646;BME280;7922;43.622;1.476;2024-01-06T09:04:34;99850.22;;;6.16;100.00
15646;BME280;7922;43.622;1.476;2024-01-06T09:06:59;99830.38;;;6.05;100.00
15646;BME280;7922;43.622;1.476;2024-01-06T09:09:24;99850.78;;;6.27;100.00
15646;BME280;7922;43.622;1.476;2024-01-06T09:11:50;99825.75;;;6.14;100.00
15646;BME280;7922;43.622;1.476;2024-01-06T09:14:17;99840.34;;;6.24;100.00
15646;BME280;7922;43.622;1.476;2024-01-06T09:16:42;99875.72;;;6.47;100.00
15646;BME280;7922;43.622;1.476;2024-01-06T09:19:07;99864.44;;;6.42;100.00
15646;BME280;7922;43.622;1.476;2024-01-06T09:21:33;99866.19;;;6.41;100.00
15646;BME280;7922;43.622;1.476;2024-01-06T09:23:58;99893.13;;;6.51;100.00
15646;BME280;7922;43.622;1.476;2024-01-06T09:26:23;99838.09;;;6.11;100.00
15646;BME280;7922;43.622;1.476;2024-01-06T09:28:49;99886.25;;;6.45;100.00
15646;BME280;7922;43.622;1.476;2024-01-06T09:31:14;99888.97;;;6.42;100.00
15646;BME280;7922;43.622;1.476;2024-01-06T09:33:39;99882.75;;;6.46;100.00
15646;BME280;7922;43.622;1.476;2024-01-06T09:36:05;99897.25;;;6.60;100.00
15646;BME280;7922;43.622;1.476;2024-01-06T09:38:30;99887.69;;;6.57;100.00
15646;BME280;7922;43.622;1.476;2024-01-06T09:40:56;99894.03;;;6.81;100.00
15646;BME280;7922;43.622;1.476;2024-01-06T09:43:23;99905.09;;;6.94;100.00
15646;BME280;7922;43.622;1.476;2024-01-06T09:45:56;99858.22;;;6.44;100.00
15646;BME280;7922;43.622;1.476;2024-01-06T09:48:29;99833.56;;;6.16;100.00
15646;BME280;7922;43.622;1.476;2024-01-06T09:50:56;99918.41;;;6.57;100.00
15646;BME280;7922;43.622;1.476;2024-01-06T09:53:23;99877.88;;;6.31;100.00
15646;BME280;7922;43.622;1.476;2024-01-06T09:55:51;99889.03;;;6.41;100.00
15646;BME280;7922;43.622;1.476;2024-01-06T09:58:16;99905.13;;;6.61;100.00
15646;BME280;7922;43.622;1.476;2024-01-06T10:00:41;99898.13;;;6.60;100.00
15646;BME280;7922;43.622;1.476;2024-01-06T10:03:07;99905.88;;;6.34;100.00
15646;BME280;7922;43.622;1.476;2024-01-06T10:05:32;99905.28;;;6.22;100.00
15646;BME280;7922;43.622;1.476;2024-01-06T10:07:58;99930.19;;;6.43;100.00
15646;BME280;7922;43.622;1.476;2024-01-06T10:10:24;99933.53;;;6.48;100.00
15646;BME280;7922;43.622;1.476;2024-01-06T10:12:52;99921.31;;;6.46;100.00
15646;BME280;7922;43.622;1.476;2024-01-06T10:15:19;99915.25;;;6.44;100.00
15646;BME280;7922;43.622;1.476;2024-01-06T10:17:45;99914.63;;;6.34;100.00
15646;BME280;7922;43.622;1.476;2024-01-06T10:20:11;99887.66;;;6.26;100.00
15646;BME280;7922;43.622;1.476;2024-01-06T10:22:38;99884.91;;;6.31;100.00
15646;BME280;7922;43.622;1.476;2024-01-06T10:25:06;99939.63;;;6.83;100.00
15646;BME280;7922;43.622;1.476;2024-01-06T10:27:34;99925.72;;;6.78;100.00
15646;BME280;7922;43.622;1.476;2024-01-06T10:30:00;99901.16;;;6.78;100.00
15646;BME280;7922;43.622;1.476;2024-01-06T10:32:25;99910.53;;;6.88;100.00
15646;BME280;7922;43.622;1.476;2024-01-06T10:34:50;99879.47;;;6.69;100.00
15646;BME280;7922;43.622;1.476;2024-01-06T10:37:17;99944.56;;;7.25;100.00
15646;BME280;7922;43.622;1.476;2024-01-06T10:39:42;99909.75;;;7.15;97.24
15646;BME280;7922;43.622;1.476;2024-01-06T10:42:08;99924.16;;;7.32;96.13
15646;BME280;7922;43.622;1.476;2024-01-06T10:44:34;99920.47;;;7.08;94.07
15646;BME280;7922;43.622;1.476;2024-01-06T10:47:00;99929.75;;;7.21;93.34
15646;BME280;7922;43.622;1.476;2024-01-06T10:49:26;99856.69;;;6.68;93.32
15646;BME280;7922;43.622;1.476;2024-01-06T10:51:53;99868.66;;;6.47;92.97
15646;BME280;7922;43.622;1.476;2024-01-06T10:54:20;99919.03;;;6.66;94.52
15646;BME280;7922;43.622;1.476;2024-01-06T10:56:47;99921.50;;;6.71;95.20
15646;BME280;7922;43.622;1.476;2024-01-06T10:59:14;99937.66;;;6.59;95.39
15646;BME280;7922;43.622;1.476;2024-01-06T11:01:41;99924.53;;;6.57;94.94
15646;BME280;7922;43.622;1.476;2024-01-06T11:04:07;99943.69;;;6.62;94.45
15646;BME280;7922;43.622;1.476;2024-01-06T11:06:33;99894.34;;;6.39;94.34
15646;BME280;7922;43.622;1.476;2024-01-06T11:11:31;99934.47;;;6.79;94.50
15646;BME280;7922;43.622;1.476;2024-01-06T11:14:17;99954.94;;;6.69;93.85
15646;BME280;7922;43.622;1.476;2024-01-06T11:16:43;99945.53;;;6.91;94.22
15646;BME280;7922;43.622;1.476;2024-01-06T11:22:23;99943.44;;;6.71;93.45
15646;BME280;7922;43.622;1.476;2024-01-06T11:24:50;99954.31;;;6.59;93.97
15646;BME280;7922;43.622;1.476;2024-01-06T11:27:24;99897.84;;;6.38;93.96
15646;BME280;7922;43.622;1.476;2024-01-06T11:29:53;99954.56;;;6.50;92.85
15646;BME280;7922;43.622;1.476;2024-01-06T11:32:29;99922.28;;;6.43;92.62
15646;BME280;7922;43.622;1.476;2024-01-06T11:34:56;99951.47;;;6.67;91.13
15646;BME280;7922;43.622;1.476;2024-01-06T11:40:16;99909.00;;;6.48;88.29
15646;BME280;7922;43.622;1.476;2024-01-06T11:45:24;99924.06;;;6.74;88.47
15646;BME280;7922;43.622;1.476;2024-01-06T11:47:54;99863.56;;;6.41;88.23
15646;BME280;7922;43.622;1.476;2024-01-06T11:50:21;99921.34;;;6.77;90.59
15646;BME280;7922;43.622;1.476;2024-01-06T11:52:46;99864.34;;;6.45;89.66
15646;BME280;7922;43.622;1.476;2024-01-06T11:55:11;99924.56;;;6.88;90.31
15646;BME280;7922;43.622;1.476;2024-01-06T11:57:37;99920.59;;;6.73;90.94
15646;BME280;7922;43.622;1.476;2024-01-06T12:00:03;99893.63;;;6.64;90.06
15646;BME280;7922;43.622;1.476;2024-01-06T12:02:28;99933.31;;;6.89;90.60
15646;BME280;7922;43.622;1.476;2024-01-06T12:04:54;99877.06;;;6.60;89.82
15646;BME280;7922;43.622;1.476;2024-01-06T12:07:22;99881.47;;;6.60;89.97
15646;BME280;7922;43.622;1.476;2024-01-06T12:09:48;99919.28;;;6.88;90.62
15646;BME280;7922;43.622;1.476;2024-01-06T12:12:15;99892.34;;;6.47;88.17
15646;BME280;7922;43.622;1.476;2024-01-06T12:14:41;99930.97;;;6.78;87.63
15646;BME280;7922;43.622;1.476;2024-01-06T12:17:06;99917.25;;;6.67;87.63
15646;BME280;7922;43.622;1.476;2024-01-06T12:19:33;99877.16;;;6.57;88.32
15646;BME280;7922;43.622;1.476;2024-01-06T12:21:58;99919.44;;;6.84;87.67
15646;BME280;7922;43.622;1.476;2024-01-06T12:24:27;99878.84;;;6.60;86.97
15646;BME280;7922;43.622;1.476;2024-01-06T12:26:52;99939.41;;;6.91;87.39
15646;BME280;7922;43.622;1.476;2024-01-06T12:29:18;99903.16;;;6.69;87.35
15646;BME280;7922;43.622;1.476;2024-01-06T12:31:46;99915.72;;;6.89;86.21
15646;BME280;7922;43.622;1.476;2024-01-06T12:34:11;99897.41;;;6.86;85.25
15646;BME280;7922;43.622;1.476;2024-01-06T12:36:38;99912.78;;;7.02;85.50
15646;BME280;7922;43.622;1.476;2024-01-06T12:39:04;99931.59;;;7.19;85.42
15646;BME280;7922;43.622;1.476;2024-01-06T12:41:29;99903.72;;;7.10;85.24
15646;BME280;7922;43.622;1.476;2024-01-06T12:43:55;99892.06;;;7.19;84.35
15646;BME280;7922;43.622;1.476;2024-01-06T12:46:20;99912.03;;;7.26;84.45
15646;BME280;7922;43.622;1.476;2024-01-06T12:48:46;99884.88;;;7.24;84.83
15646;BME280;7922;43.622;1.476;2024-01-06T12:51:11;99889.06;;;7.30;84.48
15646;BME280;7922;43.622;1.476;2024-01-06T12:53:36;99903.47;;;7.19;83.61
15646;BME280;7922;43.622;1.476;2024-01-06T12:56:01;99916.25;;;7.32;84.68
15646;BME280;7922;43.622;1.476;2024-01-06T12:58:27;99914.25;;;7.40;85.10
15646;BME280;7922;43.622;1.476;2024-01-06T13:00:52;99907.97;;;7.16;83.28
15646;BME280;7922;43.622;1.476;2024-01-06T13:03:17;99936.84;;;7.19;84.50
15646;BME280;7922;43.622;1.476;2024-01-06T13:05:43;99902.31;;;6.98;83.94
15646;BME280;7922;43.622;1.476;2024-01-06T13:08:08;99919.97;;;6.95;84.58
15646;BME280;7922;43.622;1.476;2024-01-06T13:10:33;99904.00;;;7.01;83.96
15646;BME280;7922;43.622;1.476;2024-01-06T13:12:58;99916.91;;;7.10;84.29
15646;BME280;7922;43.622;1.476;2024-01-06T13:15:24;99904.59;;;7.11;84.20